Time;durP1;ratioP1;P1;durP2;ratioP2;P2;SDS_P1;SDS_P2;PMS_P1;PMS_P2;Temp;Humidity;BMP_temperature;BMP_pressure;BME280_temperature;BME280_humidity;BME280_pressure;Samples;Min_cycle;Max_cycle;Signal;HPM_P1;HPM_P2
2022/01/01 00:02:07;;;;;;;72.70;24.53;;;;;;;8.34;100.00;101396.94;5033346;28;20029;-79
2022/01/01 00:04:32;;;;;;;84.70;24.27;;;;;;;8.29;100.00;101382.34;5030852;28;20021;-79
2022/01/01 00:06:57;;;;;;;92.03;26.07;;;;;;;8.29;100.00;101387.66;5030328;28;20029;-78
2022/01/01 00:09:23;;;;;;;77.23;25.80;;;;;;;8.31;100.00;101402.53;5015739;28;20438;-79
2022/01/01 00:11:48;;;;;;;72.10;26.50;;;;;;;8.28;100.00;101394.81;5032725;28;20724;-79
2022/01/01 00:14:14;;;;;;;84.03;27.23;;;;;;;8.28;100.00;101402.78;5033092;28;20108;-77
2022/01/01 00:16:39;;;;;;;91.23;28.87;;;;;;;8.24;100.00;101407.53;5033913;28;20136;-78
2022/01/01 00:19:04;;;;;;;96.80;27.93;;;;;;;8.28;100.00;101413.41;5031533;28;20205;-75
2022/01/01 00:21:30;;;;;;;83.40;32.10;;;;;;;8.24;100.00;101407.53;5036616;28;20037;-78
2022/01/01 00:23:56;;;;;;;96.38;30.63;;;;;;;8.31;100.00;101418.50;5033521;28;20040;-79
2022/01/01 00:26:21;;;;;;;87.10;31.67;;;;;;;8.31;100.00;101415.84;5034233;28;20041;-79
2022/01/01 00:28:47;;;;;;;77.65;26.05;;;;;;;8.35;100.00;101427.88;5034771;28;20108;-79
2022/01/01 00:31:13;;;;;;;98.50;31.80;;;;;;;8.23;100.00;101410.31;5032884;28;20033;-80
2022/01/01 00:33:38;;;;;;;107.93;29.07;;;;;;;8.29;100.00;101414.25;5030932;28;20674;-75
2022/01/01 00:36:04;;;;;;;74.53;25.48;;;;;;;8.30;100.00;101429.25;5032862;28;21216;-79
2022/01/01 00:38:29;;;;;;;92.93;25.88;;;;;;;8.35;100.00;101441.19;5033534;28;20029;-75
2022/01/01 00:40:55;;;;;;;63.00;22.53;;;;;;;8.36;100.00;101442.88;5031799;28;20083;-78
2022/01/01 00:43:20;;;;;;;79.63;22.63;;;;;;;8.34;100.00;101458.13;5032449;28;20029;-76
2022/01/01 00:45:46;;;;;;;60.97;19.60;;;;;;;8.34;100.00;101455.47;5032891;28;20041;-79
2022/01/01 00:48:12;;;;;;;73.97;20.27;;;;;;;8.40;100.00;101462.94;5032497;28;20033;-79
2022/01/01 00:50:37;;;;;;;67.23;18.17;;;;;;;8.42;100.00;101468.16;5031934;28;20175;-78
2022/01/01 00:53:02;;;;;;;64.53;17.40;;;;;;;8.48;100.00;101457.00;5033335;28;20765;-76
2022/01/01 00:55:28;;;;;;;72.57;18.50;;;;;;;8.45;100.00;101447.47;5035949;28;20431;-79
2022/01/01 00:57:53;;;;;;;64.47;17.70;;;;;;;8.49;100.00;101450.69;5031564;28;20029;-79
2022/01/01 01:00:19;;;;;;;54.30;17.77;;;;;;;8.45;100.00;101435.94;5032506;28;20049;-77
2022/01/01 01:02:44;;;;;;;74.63;19.13;;;;;;;8.45;100.00;101433.28;5033652;28;20324;-78
2022/01/01 01:05:09;;;;;;;69.87;21.20;;;;;;;8.49;100.00;101436.53;5032660;28;20271;-77
2022/01/01 01:07:35;;;;;;;71.40;19.50;;;;;;;8.42;100.00;101421.09;5033464;28;20037;-77
2022/01/01 01:10:05;;;;;;;64.30;18.27;;;;;;;8.50;100.00;101424.91;5048491;28;20031;-77
2022/01/01 01:12:41;;;;;;;61.67;20.98;;;;;;;8.42;100.00;101423.75;5032177;28;20037;-79
2022/01/01 01:15:09;;;;;;;66.50;19.20;;;;;;;8.45;100.00;101406.69;5026297;28;20060;-79
2022/01/01 01:17:35;;;;;;;77.18;22.55;;;;;;;8.44;100.00;101405.84;5032010;28;20055;-77
2022/01/01 01:20:00;;;;;;;87.77;21.97;;;;;;;8.45;100.00;101410.19;5048308;28;20034;-77
2022/01/01 01:22:28;;;;;;;82.27;20.50;;;;;;;8.39;100.00;101405.38;5031674;28;20026;-76
2022/01/01 01:24:53;;;;;;;69.65;16.75;;;;;;;8.43;100.00;101401.50;5030748;28;20029;-79
2022/01/01 01:27:19;;;;;;;60.90;17.92;;;;;;;8.43;100.00;101390.88;5030995;28;20017;-79
2022/01/01 01:29:45;;;;;;;62.13;16.97;;;;;;;8.41;100.00;101387.50;5031604;28;20086;-75
2022/01/01 01:32:11;;;;;;;68.10;18.63;;;;;;;8.42;100.00;101399.81;5031577;28;20277;-77
2022/01/01 01:34:37;;;;;;;54.40;13.40;;;;;;;8.41;100.00;101387.50;5032101;28;20044;-78
2022/01/01 01:37:02;;;;;;;58.30;16.08;;;;;;;8.42;100.00;101383.84;5039914;28;20035;-76
2022/01/01 01:39:28;;;;;;;52.55;15.40;;;;;;;8.38;100.00;101382.41;5032169;28;20029;-79
2022/01/01 01:41:53;;;;;;;63.30;15.30;;;;;;;8.42;100.00;101373.19;5033405;28;20445;-79
2022/01/01 01:44:30;;;;;;;54.00;15.43;;;;;;;8.47;100.00;101383.44;5032764;28;20053;-80
2022/01/01 01:46:56;;;;;;;53.95;15.85;;;;;;;8.49;100.00;101385.97;5032059;28;20049;-80
2022/01/01 01:49:22;;;;;;;48.42;15.30;;;;;;;8.46;100.00;101384.44;5033218;28;20025;-80
2022/01/01 01:51:48;;;;;;;55.60;15.07;;;;;;;8.41;100.00;101373.34;5033186;28;20091;-80
2022/01/01 01:54:13;;;;;;;50.35;14.25;;;;;;;8.37;100.00;101367.41;5033111;28;20025;-80
2022/01/01 01:56:39;;;;;;;55.53;13.43;;;;;;;8.35;100.00;101366.69;5061398;22;20049;-86
2022/01/01 01:59:05;;;;;;;43.45;12.70;;;;;;;8.39;100.00;101375.25;5041678;28;20029;-86
2022/01/01 02:01:30;;;;;;;35.28;10.55;;;;;;;8.42;100.00;101383.84;5018648;28;20048;-86
2022/01/01 02:03:57;;;;;;;45.30;11.87;;;;;;;8.40;100.00;101379.63;5022830;28;20047;-86
2022/01/01 02:06:26;;;;;;;48.92;12.43;;;;;;;8.35;100.00;101369.34;5043508;28;20694;-85
2022/01/01 02:08:54;;;;;;;40.88;10.38;;;;;;;8.42;100.00;101378.50;5026845;28;20022;-86
2022/01/01 02:11:21;;;;;;;32.38;9.60;;;;;;;8.39;100.00;101373.44;5023804;28;20038;-86
2022/01/01 02:18:51;;;;;;;47.90;10.97;;;;;;;8.36;100.00;101381.69;5040088;28;19971;-85
2022/01/01 02:21:17;;;;;;;41.42;9.73;;;;;;;8.31;100.00;101385.72;5042657;28;20280;-86
2022/01/01 02:23:44;;;;;;;39.63;11.45;;;;;;;8.35;100.00;101389.81;5027558;28;20037;-86
2022/01/01 02:26:15;;;;;;;38.40;10.73;;;;;;;8.31;100.00;101388.38;5030485;28;20492;-87
2022/01/01 02:28:42;;;;;;;45.17;10.15;;;;;;;8.29;100.00;101380.53;5044495;28;20322;-86
2022/01/01 02:31:07;;;;;;;36.97;8.73;;;;;;;8.29;100.00;101388.53;5028947;28;20040;-86
2022/01/01 02:33:33;;;;;;;53.60;8.98;;;;;;;8.24;100.00;101382.72;5029927;28;20037;-86
2022/01/01 02:35:58;;;;;;;30.60;9.93;;;;;;;8.32;100.00;101388.25;5026970;28;20021;-86
2022/01/01 02:38:24;;;;;;;69.15;11.27;;;;;;;8.26;100.00;101378.13;5043494;28;20091;-86
2022/01/01 02:40:49;;;;;;;40.73;9.00;;;;;;;8.31;100.00;101386.56;5026636;28;20033;-86
2022/01/01 02:43:17;;;;;;;44.40;8.60;;;;;;;8.36;100.00;101384.34;5023929;28;20625;-86
2022/01/01 02:45:42;;;;;;;33.20;8.25;;;;;;;8.26;100.00;101362.16;5031269;28;20044;-86
2022/01/01 02:48:08;;;;;;;34.07;8.10;;;;;;;8.28;100.00;101352.22;5043426;28;20033;-87
2022/01/01 02:50:33;;;;;;;56.37;12.57;;;;;;;8.25;100.00;101360.50;5026862;28;20163;-87
2022/01/01 02:52:58;;;;;;;51.50;9.67;;;;;;;8.30;100.00;101365.41;5038815;28;20072;-87
2022/01/01 02:55:24;;;;;;;37.30;9.80;;;;;;;8.21;100.00;101359.06;5032543;28;20126;-87
2022/01/01 02:57:49;;;;;;;40.07;8.87;;;;;;;8.15;100.00;101343.66;5036284;28;20197;-86
2022/01/01 03:00:15;;;;;;;36.40;8.53;;;;;;;8.17;100.00;101350.53;5032403;28;20087;-87
2022/01/01 03:02:40;;;;;;;53.08;9.40;;;;;;;8.18;100.00;101351.34;5024069;28;20041;-86
2022/01/01 03:05:07;;;;;;;41.80;7.83;;;;;;;8.11;100.00;101352.84;5043009;28;20169;-86
2022/01/01 03:07:35;;;;;;;34.55;7.40;;;;;;;8.17;100.00;101369.13;5024382;28;20032;-86
2022/01/01 03:10:00;;;;;;;43.83;8.07;;;;;;;8.23;100.00;101381.06;5027231;28;20631;-86
2022/01/01 03:12:25;;;;;;;33.97;6.80;;;;;;;8.17;100.00;101379.78;5027672;28;20136;-85
2022/01/01 03:14:51;;;;;;;42.13;8.03;;;;;;;8.08;100.00;101371.72;5040746;28;20029;-85
2022/01/01 03:17:16;;;;;;;34.30;6.87;;;;;;;8.14;100.00;101395.16;5041499;28;20270;-85
2022/01/01 03:19:42;;;;;;;31.63;7.23;;;;;;;8.18;100.00;101396.56;5030600;28;20017;-85
2022/01/01 03:22:07;;;;;;;37.90;6.80;;;;;;;8.19;100.00;101396.44;5042638;28;20293;-86
2022/01/01 03:24:33;;;;;;;49.97;8.07;;;;;;;8.15;100.00;101396.84;5025192;28;20111;-85
2022/01/01 03:27:00;;;;;;;43.50;10.60;;;;;;;8.19;100.00;101404.44;5035347;28;21181;-85
2022/01/01 03:29:28;;;;;;;33.63;8.27;;;;;;;8.16;100.00;101402.00;5025427;28;20025;-85
2022/01/01 03:31:54;;;;;;;38.45;7.20;;;;;;;8.23;100.00;101407.66;5023487;28;20037;-85
2022/01/01 03:34:21;;;;;;;44.13;8.75;;;;;;;8.17;100.00;101402.84;5022060;28;20024;-86
2022/01/01 03:36:46;;;;;;;45.65;7.60;;;;;;;8.16;100.00;101398.50;5024027;28;20210;-85
2022/01/01 03:39:12;;;;;;;33.47;7.90;;;;;;;8.11;100.00;101398.06;5025782;28;20502;-85
2022/01/01 03:41:37;;;;;;;33.90;8.23;;;;;;;8.10;100.00;101394.56;5027107;28;20038;-85
2022/01/01 03:44:03;;;;;;;36.23;8.97;;;;;;;8.11;100.00;101387.44;5042153;28;20031;-85
2022/01/01 03:46:28;;;;;;;46.15;7.63;;;;;;;8.12;100.00;101403.25;5025907;28;20841;-85
2022/01/01 03:48:54;;;;;;;44.10;9.13;;;;;;;8.14;100.00;101397.81;5039890;28;20031;-85
2022/01/01 03:51:19;;;;;;;51.10;11.43;;;;;;;8.14;100.00;101401.31;5038966;28;20112;-85
2022/01/01 03:53:44;;;;;;;44.87;9.53;;;;;;;8.12;100.00;101405.91;5022558;28;20037;-86
2022/01/01 03:56:11;;;;;;;38.43;8.63;;;;;;;8.14;100.00;101400.47;5038970;28;20037;-86
2022/01/01 03:58:36;;;;;;;38.47;8.68;;;;;;;8.10;100.00;101396.38;5021809;28;20037;-86
2022/01/01 04:01:02;;;;;;;38.67;8.43;;;;;;;8.00;100.00;101383.84;5040173;28;20380;-85
2022/01/01 04:03:27;;;;;;;40.07;9.13;;;;;;;8.00;100.00;101399.81;5022189;28;20037;-86
2022/01/01 04:05:53;;;;;;;46.93;10.87;;;;;;;8.01;100.00;101404.16;5024431;28;20052;-85
2022/01/01 04:08:18;;;;;;;36.27;7.13;;;;;;;8.03;100.00;101404.88;5025624;28;20051;-85
2022/01/01 04:10:44;;;;;;;38.27;8.80;;;;;;;8.06;100.00;101402.94;5023631;28;20286;-85
2022/01/01 04:13:10;;;;;;;30.65;7.82;;;;;;;8.08;100.00;101411.59;5038485;28;20029;-85
2022/01/01 04:15:37;;;;;;;37.20;7.90;;;;;;;7.99;100.00;101399.97;5038220;28;20041;-86
2022/01/01 04:18:09;;;;;;;40.53;7.30;;;;;;;7.98;100.00;101407.09;5041756;28;20025;-86
2022/01/01 04:20:35;;;;;;;61.97;12.02;;;;;;;7.97;100.00;101410.72;5025369;28;20044;-86
2022/01/01 04:23:00;;;;;;;54.10;10.13;;;;;;;7.95;100.00;101411.81;5038738;28;20021;-86
2022/01/01 04:25:26;;;;;;;49.90;10.88;;;;;;;7.91;100.00;101415.69;5021293;28;20129;-85
2022/01/01 04:27:53;;;;;;;59.00;10.38;;;;;;;7.92;100.00;101418.25;5015899;28;20033;-85
2022/01/01 04:30:19;;;;;;;47.60;10.25;;;;;;;7.98;100.00;101422.19;5041375;28;20032;-86
2022/01/01 04:32:45;;;;;;;52.08;7.85;;;;;;;7.98;100.00;101438.13;5024391;28;20111;-87
2022/01/01 04:35:10;;;;;;;36.60;8.30;;;;;;;7.96;100.00;101446.25;5021874;28;20033;-86
2022/01/01 04:37:37;;;;;;;46.63;9.82;;;;;;;7.94;100.00;101437.56;5022265;28;20754;-85
2022/01/01 04:40:06;;;;;;;47.53;8.73;;;;;;;7.91;100.00;101448.44;5028293;23;20056;-80
2022/01/01 04:42:32;;;;;;;48.85;8.77;;;;;;;7.93;100.00;101450.97;5021640;28;20048;-80
2022/01/01 04:44:58;;;;;;;35.53;9.70;;;;;;;7.90;100.00;101449.44;5008762;28;20034;-78
2022/01/01 04:47:24;;;;;;;34.05;7.22;;;;;;;7.87;100.00;101441.72;5009091;28;20476;-80
2022/01/01 04:49:49;;;;;;;28.27;7.20;;;;;;;7.85;100.00;101430.34;5009465;28;20867;-77
2022/01/01 04:52:15;;;;;;;40.73;8.53;;;;;;;7.88;100.00;101445.22;5009809;28;20116;-79
2022/01/01 04:54:42;;;;;;;48.33;9.60;;;;;;;7.88;100.00;101448.72;5009081;28;20538;-80
2022/01/01 04:57:08;;;;;;;39.03;7.25;;;;;;;7.92;100.00;101455.47;5000995;28;20065;-80
2022/01/01 04:59:34;;;;;;;;;;;;;;;7.91;100.00;101467.06;5008154;28;20034;-78
2022/01/01 05:02:00;;;;;;;32.30;8.18;;;;;;;7.89;100.00;101465.50;5008301;28;19914;-78
2022/01/01 05:04:26;;;;;;;;;;;;;;;7.90;100.00;101475.19;5008473;28;20075;-79
2022/01/01 05:06:52;;;;;;;;;;;;;;;7.85;100.00;101470.25;4991564;28;19957;-78
2022/01/01 05:09:18;;;;;;;41.40;6.07;;;;;;;7.83;100.00;101472.19;5008216;28;19920;-79
2022/01/01 05:11:44;;;;;;;48.92;9.45;;;;;;;7.77;100.00;101457.59;5007996;28;20690;-78
2022/01/01 05:14:09;;;;;;;33.78;7.93;;;;;;;7.77;100.00;101464.69;5007036;28;20033;-77
2022/01/01 05:16:35;;;;;;;41.35;7.15;;;;;;;7.76;100.00;101471.00;5007844;28;20491;-79
2022/01/01 05:19:01;;;;;;;44.38;7.15;;;;;;;7.83;100.00;101474.84;5007606;28;20030;-79
2022/01/01 05:21:32;;;;;;;44.23;8.40;;;;;;;7.81;100.00;101471.47;4999255;28;20045;-79
2022/01/01 05:23:59;;;;;;;39.22;7.05;;;;;;;7.79;100.00;101476.88;5006811;28;20103;-80
2022/01/01 05:26:24;;;;;;;39.38;5.72;;;;;;;7.81;100.00;101476.78;5007385;28;20028;-78
2022/01/01 05:28:50;;;;;;;36.83;6.25;;;;;;;7.80;100.00;101477.75;5006112;28;20065;-78
2022/01/01 05:31:19;;;;;;;51.17;7.87;;;;;;;7.75;100.00;101464.84;5007378;28;20018;-79
2022/01/01 05:33:50;;;;;;;50.08;8.05;;;;;;;7.76;100.00;101471.84;5006905;28;20284;-77
2022/01/01 05:36:16;;;;;;;43.33;8.43;;;;;;;7.82;100.00;101481.13;5007346;28;20042;-79
2022/01/01 05:38:43;;;;;;;42.40;6.97;;;;;;;7.85;100.00;101496.00;5007164;28;20030;-80
2022/01/01 05:41:09;;;;;;;45.80;8.98;;;;;;;7.77;100.00;101481.50;5015432;28;20563;-79
2022/01/01 05:43:34;;;;;;;33.28;7.07;;;;;;;7.88;100.00;101496.56;5010875;28;20140;-78
2022/01/01 05:46:00;;;;;;;47.47;9.23;;;;;;;7.83;100.00;101482.81;5011495;28;20043;-78
2022/01/01 05:48:26;;;;;;;36.05;8.68;;;;;;;7.83;100.00;101488.13;5011688;28;20029;-79
2022/01/01 05:50:51;;;;;;;42.03;6.93;;;;;;;7.82;100.00;101481.97;5011351;28;20068;-78
2022/01/01 05:53:17;;;;;;;31.00;5.43;;;;;;;7.85;100.00;101491.50;5010961;28;20022;-80
2022/01/01 05:55:42;;;;;;;48.40;8.00;;;;;;;7.91;100.00;101492.81;5010764;28;20365;-80
2022/01/01 05:58:08;;;;;;;33.77;8.17;;;;;;;7.82;100.00;101481.97;5011034;28;20364;-79
2022/01/01 06:00:34;;;;;;;30.85;7.35;;;;;;;7.87;100.00;101494.88;5011245;28;20080;-79
2022/01/01 06:03:00;;;;;;;;;;;;;;;7.90;100.00;101499.09;5011789;28;20029;-79
2022/01/01 06:05:27;;;;;;;38.95;7.60;;;;;;;7.86;100.00;101498.50;5011169;28;19919;-79
2022/01/01 06:07:54;;;;;;;47.53;9.23;;;;;;;7.85;100.00;101496.81;5010408;28;20029;-79
2022/01/01 06:10:20;;;;;;;38.90;9.70;;;;;;;7.80;100.00;101502.53;5010870;28;20061;-78
2022/01/01 06:12:45;;;;;;;58.70;10.00;;;;;;;7.80;100.00;101507.00;5010839;28;20056;-78
2022/01/01 06:15:11;;;;;;;37.37;7.90;;;;;;;7.79;100.00;101503.47;5009958;28;20041;-80
2022/01/01 06:17:36;;;;;;;65.15;11.93;;;;;;;7.85;100.00;101502.16;5010537;28;20447;-79
2022/01/01 06:20:02;;;;;;;37.37;9.90;;;;;;;7.88;100.00;101501.88;5010207;28;20038;-79
2022/01/01 06:22:28;;;;;;;45.55;11.32;;;;;;;7.85;100.00;101501.31;5010044;28;20743;-79
2022/01/01 06:24:53;;;;;;;49.47;12.05;;;;;;;7.82;100.00;101502.41;5001859;28;20042;-79
2022/01/01 06:27:18;;;;;;;54.47;11.67;;;;;;;7.88;100.00;101503.69;5009780;28;20022;-80
2022/01/01 06:29:45;;;;;;;45.27;13.43;;;;;;;7.86;100.00;101501.16;5010141;28;20049;-79
2022/01/01 06:32:11;;;;;;;46.50;10.25;;;;;;;7.85;100.00;101510.13;5009869;28;20116;-80
2022/01/01 06:34:36;;;;;;;42.17;11.60;;;;;;;7.89;100.00;101518.66;5009916;28;20549;-80
2022/01/01 06:37:02;;;;;;;32.40;9.80;;;;;;;7.95;100.00;101523.50;5009699;28;20080;-81
2022/01/01 06:39:27;;;;;;;41.63;10.87;;;;;;;7.91;100.00;101525.53;5009792;28;20631;-80
2022/01/01 06:41:53;;;;;;;49.23;12.27;;;;;;;7.94;100.00;101535.94;5002026;28;20281;-80
2022/01/01 06:44:19;;;;;;;45.20;10.50;;;;;;;7.98;100.00;101534.75;5009589;28;20124;-80
2022/01/01 06:46:44;;;;;;;46.97;11.13;;;;;;;7.97;100.00;101538.34;5001257;28;20037;-79
2022/01/01 06:49:09;;;;;;;41.00;11.53;;;;;;;8.00;100.00;101548.72;5009442;28;20061;-78
2022/01/01 06:51:36;;;;;;;48.43;12.77;;;;;;;7.97;100.00;101543.66;5009194;28;20033;-77
2022/01/01 06:54:02;;;;;;;36.97;10.70;;;;;;;8.06;100.00;101546.56;4984703;28;20027;-79
2022/01/01 06:56:28;;;;;;;;;;;;;;;8.10;100.00;101551.50;4997356;28;20022;-80
2022/01/01 06:58:53;;;;;;;;;;;;;;;8.05;100.00;101535.03;5001183;28;19913;-78
2022/01/01 07:01:18;;;;;;;38.07;11.97;;;;;;;7.91;100.00;101520.22;5009303;28;20024;-80
2022/01/01 07:03:44;;;;;;;48.70;12.37;;;;;;;7.93;100.00;101528.09;5008785;28;20076;-79
2022/01/01 07:06:09;;;;;;;55.63;14.70;;;;;;;7.96;100.00;101542.00;5008791;28;20128;-77
2022/01/01 07:08:34;;;;;;;55.43;15.70;;;;;;;7.92;100.00;101543.22;5009024;28;20084;-78
2022/01/01 07:11:00;;;;;;;51.60;15.90;;;;;;;7.97;100.00;101554.31;5000688;28;20471;-79
2022/01/01 07:13:25;;;;;;;57.57;13.70;;;;;;;8.03;100.00;101571.59;5008990;28;20037;-79
2022/01/01 07:15:51;;;;;;;47.60;16.37;;;;;;;7.96;100.00;101563.25;5008385;28;20037;-79
2022/01/01 07:18:16;;;;;;;58.28;15.10;;;;;;;8.06;100.00;101583.78;5008782;28;20034;-79
2022/01/01 07:20:42;;;;;;;60.37;19.40;;;;;;;8.14;100.00;101599.94;5008997;28;20088;-78
2022/01/01 07:23:08;;;;;;;52.00;17.10;;;;;;;8.19;100.00;101603.06;5008971;28;20100;-79
2022/01/01 07:25:34;;;;;;;51.57;16.73;;;;;;;8.14;100.00;101595.47;5008774;28;20030;-79
2022/01/01 07:27:59;;;;;;;;;;;;;;;8.11;100.00;101589.56;5009316;28;20038;-78
2022/01/01 07:30:24;;;;;;;;;;;;;;;8.07;100.00;101590.78;4992631;28;20294;-78
2022/01/01 07:32:50;;;;;;;66.83;17.03;;;;;;;8.08;100.00;101592.47;5008495;28;20000;-79
2022/01/01 07:35:17;;;;;;;69.03;19.30;;;;;;;8.02;100.00;101601.78;5008582;28;20395;-79
2022/01/01 07:37:43;;;;;;;69.80;17.60;;;;;;;8.00;100.00;101607.22;5000166;28;20042;-77
2022/01/01 07:40:12;;;;;;;60.80;17.02;;;;;;;7.99;100.00;101610.03;5012288;28;20029;-78
2022/01/01 07:42:37;;;;;;;59.50;17.42;;;;;;;8.02;100.00;101637.22;5015043;28;20513;-79
2022/01/01 07:45:04;;;;;;;50.67;15.35;;;;;;;8.03;100.00;101646.88;4991316;28;20014;-78
2022/01/01 07:47:30;;;;;;;52.30;16.10;;;;;;;7.95;100.00;101644.00;5007917;28;20510;-78
2022/01/01 07:49:55;;;;;;;62.93;19.33;;;;;;;8.11;100.00;101675.53;4994823;28;20018;-79
2022/01/01 07:52:20;;;;;;;54.60;17.33;;;;;;;8.07;100.00;101665.25;5025182;28;20034;-79
2022/01/01 07:54:46;;;;;;;69.53;19.03;;;;;;;8.09;100.00;101684.59;5009334;28;20124;-78
2022/01/01 07:57:11;;;;;;;58.23;19.57;;;;;;;8.11;100.00;101691.47;5009817;28;20025;-78
2022/01/01 07:59:36;;;;;;;63.37;17.37;;;;;;;8.20;100.00;101705.88;5011618;28;20033;-79
2022/01/01 08:02:02;;;;;;;70.40;22.03;;;;;;;8.17;100.00;101706.97;4997847;28;20029;-78
2022/01/01 08:04:27;;;;;;;55.50;18.77;;;;;;;8.18;100.00;101711.28;4996073;28;20065;-78
2022/01/01 08:06:53;;;;;;;61.63;18.77;;;;;;;8.14;100.00;101703.69;4994560;28;20026;-78
2022/01/01 08:09:18;;;;;;;61.63;17.03;;;;;;;8.18;100.00;101713.13;5009864;28;20030;-79
2022/01/01 08:11:43;;;;;;;62.90;18.67;;;;;;;8.19;100.00;101717.44;4993938;28;20373;-78
2022/01/01 08:14:09;;;;;;;65.80;19.43;;;;;;;8.21;100.00;101704.88;5009944;28;20076;-77
2022/01/01 08:16:35;;;;;;;65.57;20.50;;;;;;;8.20;100.00;101717.34;5009994;28;20033;-78
2022/01/01 08:19:00;;;;;;;63.70;20.08;;;;;;;8.17;100.00;101709.63;5007937;28;20049;-79
2022/01/01 08:21:25;;;;;;;52.27;19.13;;;;;;;8.11;100.00;101711.91;5009554;28;20038;-79
2022/01/01 08:23:51;;;;;;;77.97;19.73;;;;;;;8.17;100.00;101727.38;5007926;28;20038;-79
2022/01/01 08:26:16;;;;;;;70.30;18.63;;;;;;;8.19;100.00;101733.41;5008136;28;20033;-79
2022/01/01 08:28:42;;;;;;;55.22;19.27;;;;;;;8.15;100.00;101727.50;5008572;28;20035;-79
2022/01/01 08:31:08;;;;;;;53.27;21.70;;;;;;;8.24;100.00;101744.53;5012888;28;20030;-79
2022/01/01 08:33:33;;;;;;;56.85;17.00;;;;;;;8.15;100.00;101734.66;4991161;28;20063;-79
2022/01/01 08:35:58;;;;;;;74.90;21.83;;;;;;;8.25;100.00;101748.91;5007655;28;20041;-78
2022/01/01 08:38:24;;;;;;;69.07;19.80;;;;;;;8.23;100.00;101750.84;5007795;28;20029;-79
2022/01/01 08:40:50;;;;;;;57.47;19.65;;;;;;;8.28;100.00;101753.97;5007952;28;20041;-78
2022/01/01 08:43:15;;;;;;;59.33;19.95;;;;;;;8.30;100.00;101756.50;5008039;28;20029;-79
2022/01/01 08:45:41;;;;;;;62.73;19.10;;;;;;;8.30;100.00;101756.50;5007918;28;20048;-78
2022/01/01 08:48:07;;;;;;;53.13;19.15;;;;;;;8.33;100.00;101761.56;5008586;28;20109;-79
2022/01/01 08:50:33;;;;;;;62.17;18.42;;;;;;;8.28;100.00;101753.97;5007666;28;20041;-79
2022/01/01 08:52:59;;;;;;;67.68;21.20;;;;;;;8.22;100.00;101738.50;5009085;28;20080;-79
2022/01/01 08:55:25;;;;;;;58.23;20.40;;;;;;;8.27;100.00;101744.31;5007113;28;20563;-78
2022/01/01 08:57:51;;;;;;;60.50;20.70;;;;;;;8.19;100.00;101738.72;5008161;28;20491;-79
2022/01/01 09:00:16;;;;;;;65.70;21.48;;;;;;;8.33;100.00;101766.91;5008181;28;20503;-79
2022/01/01 09:02:42;;;;;;;79.70;24.55;;;;;;;8.31;100.00;101761.72;4994613;28;20032;-78
2022/01/01 09:05:09;;;;;;;61.47;19.60;;;;;;;8.36;100.00;101778.16;5008792;28;20038;-79
2022/01/01 09:07:35;;;;;;;81.30;22.13;;;;;;;8.31;100.00;101758.19;5011246;28;20287;-79
2022/01/01 09:10:03;;;;;;;63.50;21.50;;;;;;;8.29;100.00;101761.00;5010135;28;20026;-78
2022/01/01 09:12:29;;;;;;;71.95;23.08;;;;;;;8.34;100.00;101760.63;5010420;28;20033;-78
2022/01/01 09:14:55;;;;;;;;;;;;;;;8.33;100.00;101762.41;5010172;28;20073;-78
2022/01/01 09:17:20;;;;;;;;;;;;;;;8.38;100.00;101772.69;5008025;28;19910;-79
2022/01/01 09:19:47;;;;;;;90.00;25.23;;;;;;;8.32;100.00;101766.06;5007150;28;19913;-78
2022/01/01 09:22:12;;;;;;;60.10;20.35;;;;;;;8.26;100.00;101758.56;5007461;28;20025;-79
2022/01/01 09:24:37;;;;;;;76.43;21.70;;;;;;;8.38;100.00;101775.34;5007466;28;20041;-79
2022/01/01 09:27:04;;;;;;;73.27;23.87;;;;;;;8.39;100.00;101777.91;5008047;28;20032;-78
2022/01/01 09:29:29;;;;;;;59.22;21.25;;;;;;;8.39;100.00;101787.72;5024724;28;20295;-77
2022/01/01 09:31:55;;;;;;;71.43;21.30;;;;;;;8.40;100.00;101778.78;5007853;28;20096;-78
2022/01/01 09:34:20;;;;;;;67.63;22.10;;;;;;;8.40;100.00;101787.59;5007382;28;20044;-78
2022/01/01 09:36:47;;;;;;;59.80;20.45;;;;;;;8.39;100.00;101777.91;5010379;28;20029;-78
2022/01/01 09:39:13;;;;;;;72.75;22.02;;;;;;;8.41;100.00;101786.66;5011870;28;20041;-78
2022/01/01 09:41:41;;;;;;;67.78;18.48;;;;;;;8.38;100.00;101784.22;5016830;28;20065;-79
2022/01/01 09:44:17;;;;;;;62.70;19.70;;;;;;;8.41;100.00;101797.28;5013560;28;20046;-79
2022/01/01 09:46:44;;;;;;;73.30;21.33;;;;;;;8.42;100.00;101803.44;5011485;28;20030;-78
2022/01/01 09:49:12;;;;;;;59.67;21.75;;;;;;;8.39;100.00;101793.88;5014326;28;20308;-79
2022/01/01 09:51:39;;;;;;;67.95;23.90;;;;;;;8.33;100.00;101786.38;5019074;28;20051;-79
2022/01/01 09:54:04;;;;;;;65.25;22.90;;;;;;;8.42;100.00;101796.31;5034997;28;20502;-79
2022/01/01 09:56:30;;;;;;;72.47;24.70;;;;;;;8.48;100.00;101808.28;4997442;28;20026;-78
2022/01/01 09:58:55;;;;;;;73.20;22.90;;;;;;;8.40;100.00;101795.56;5004655;28;20069;-78
2022/01/01 10:01:21;;;;;;;73.17;23.53;;;;;;;8.60;100.00;101830.41;5012236;28;20044;-78
2022/01/01 10:03:50;;;;;;;66.93;21.87;;;;;;;8.60;100.00;101827.75;5009160;28;20063;-78
2022/01/01 10:06:20;;;;;;;76.60;23.25;;;;;;;8.50;100.00;101819.66;4996132;28;20092;-79
2022/01/01 10:08:57;;;;;;;88.50;26.20;;;;;;;8.51;100.00;101815.19;5007213;28;20034;-78
2022/01/01 10:11:23;;;;;;;93.88;25.92;;;;;;;8.55;100.00;101837.94;5009930;28;20476;-78
2022/01/01 10:13:49;;;;;;;78.22;23.85;;;;;;;8.47;100.00;101813.72;5006447;28;20014;-79
2022/01/01 10:16:15;;;;;;;84.57;25.75;;;;;;;8.50;100.00;101827.66;5004885;28;20045;-79
2022/01/01 10:18:50;;;;;;;101.07;29.13;;;;;;;8.59;100.00;101842.88;4999806;28;20021;-79
2022/01/01 10:21:18;;;;;;;92.05;27.10;;;;;;;8.63;100.00;101849.63;5008564;28;20030;-80
2022/01/01 10:23:46;;;;;;;105.93;28.85;;;;;;;8.63;100.00;101846.13;5015181;28;20021;-79
2022/01/01 10:29:11;;;;;;;97.47;27.70;;;;;;;8.71;100.00;101878.34;5019398;28;20873;-78
2022/01/01 10:31:38;;;;;;;91.68;25.67;;;;;;;8.64;100.00;101863.81;5010816;28;20026;-78
2022/01/01 10:34:13;;;;;;;102.00;30.52;;;;;;;8.67;100.00;101866.22;5010340;28;20018;-78
2022/01/01 10:36:38;;;;;;;109.07;31.70;;;;;;;8.66;100.00;101861.84;5012383;28;20487;-79
2022/01/01 10:39:15;;;;;;;94.13;28.37;;;;;;;8.73;100.00;101880.84;5012985;28;20041;-78
2022/01/01 10:41:49;;;;;;;109.03;31.05;;;;;;;8.70;100.00;101868.63;5020384;28;20056;-80
2022/01/01 10:44:15;;;;;;;109.28;28.83;;;;;;;8.69;100.00;101866.94;5012714;28;20042;-78
2022/01/01 10:46:41;;;;;;;112.18;33.40;;;;;;;8.72;100.00;101864.03;5012774;28;20033;-79
2022/01/01 10:52:24;;;;;;;113.95;29.35;;;;;;;8.72;100.00;101864.03;5028194;28;20018;-79
2022/01/01 10:54:57;;;;;;;105.75;30.70;;;;;;;8.72;100.00;101869.34;5007543;28;20941;-79
2022/01/01 10:57:52;;;;;;;127.40;31.83;;;;;;;8.69;100.00;101864.28;5014383;28;20045;-78
2022/01/01 11:00:20;;;;;;;128.88;32.95;;;;;;;8.81;100.00;101889.94;5009728;28;20042;-78
2022/01/01 11:02:54;;;;;;;139.05;34.63;;;;;;;8.85;100.00;101882.56;5002182;28;20033;-79
2022/01/01 11:05:39;;;;;;;124.80;34.50;;;;;;;8.84;100.00;101886.16;5002775;28;20200;-79
2022/01/01 11:08:07;;;;;;;142.68;36.42;;;;;;;8.90;100.00;101892.81;4986589;28;20037;-80
2022/01/01 11:10:32;;;;;;;132.52;33.00;;;;;;;8.85;100.00;101891.38;5010336;28;20499;-78
2022/01/01 11:12:59;;;;;;;151.75;35.90;;;;;;;8.86;100.00;101892.22;5010105;28;20032;-81
2022/01/01 11:15:27;;;;;;;141.85;37.28;;;;;;;8.84;100.00;101884.34;5008458;28;20037;-80
2022/01/01 11:17:52;;;;;;;129.20;35.80;;;;;;;8.76;100.00;101868.16;5007752;28;20026;-80
2022/01/01 11:20:19;;;;;;;139.00;38.33;;;;;;;8.87;100.00;101884.13;5009290;28;20026;-79
2022/01/01 11:22:45;;;;;;;150.05;37.72;;;;;;;8.92;100.00;101886.41;5009639;28;20341;-79